createdAt,value
2019-04-27T00:00:14.652Z,24.37
2019-04-27T00:02:50.481Z,18.43
2019-04-27T00:05:35.588Z,17.77
2019-04-27T00:08:05.638Z,16.07
2019-04-27T00:10:50.907Z,20.47
2019-04-27T00:13:19.403Z,21.07
2019-04-27T00:15:58.175Z,27.77
2019-04-27T00:18:34.261Z,21.03
2019-04-27T00:21:07.124Z,22.67
2019-04-27T00:23:35.551Z,21.70
2019-04-27T00:26:04.000Z,20.20
2019-04-27T00:28:33.189Z,21.27
2019-04-27T00:31:03.346Z,22.50
2019-04-27T00:33:33.809Z,18.00
2019-04-27T00:36:03.763Z,23.40
2019-04-27T00:38:33.831Z,19.33
2019-04-27T00:41:14.220Z,20.83
2019-04-27T00:43:43.163Z,19.07
2019-04-27T00:46:13.860Z,18.70
2019-04-27T00:48:43.289Z,20.37
2019-04-27T00:51:14.248Z,22.23
2019-04-27T00:53:43.459Z,20.83
2019-04-27T00:56:33.804Z,19.60
2019-04-27T00:59:16.035Z,20.60
2019-04-27T01:01:49.192Z,23.40
2019-04-27T01:04:25.014Z,22.10
2019-04-27T01:06:53.938Z,22.77
2019-04-27T01:09:23.691Z,22.70
2019-04-27T01:11:53.443Z,23.30
2019-04-27T01:14:23.088Z,19.90
2019-04-27T01:16:51.727Z,25.70
2019-04-27T01:19:20.240Z,26.07
2019-04-27T01:21:49.686Z,20.63
2019-04-27T01:24:18.958Z,25.93
2019-04-27T01:27:05.320Z,26.20
2019-04-27T01:29:35.391Z,25.43
2019-04-27T01:32:05.169Z,21.70
2019-04-27T01:34:33.595Z,22.77
2019-04-27T01:37:02.022Z,22.90
2019-04-27T01:39:30.535Z,19.97
2019-04-27T01:41:59.135Z,20.43
2019-04-27T01:44:29.372Z,22.83
2019-04-27T01:46:59.758Z,21.07
2019-04-27T01:49:29.524Z,20.77
2019-04-27T01:51:59.452Z,19.23
2019-04-27T01:54:29.135Z,19.67
2019-04-27T01:57:00.716Z,22.27
2019-04-27T01:59:28.269Z,23.67
2019-04-27T02:02:02.140Z,22.37
2019-04-27T02:04:39.571Z,22.93
2019-04-27T02:07:09.843Z,21.17
2019-04-27T02:09:38.750Z,17.93
2019-04-27T02:12:09.239Z,16.53
2019-04-27T02:14:38.975Z,19.97
2019-04-27T02:17:07.556Z,20.47
2019-04-27T02:19:35.991Z,18.30
2019-04-27T02:22:04.512Z,20.63
2019-04-27T02:24:32.951Z,20.73
2019-04-27T02:27:01.453Z,20.17
2019-04-27T02:29:50.453Z,16.23
2019-04-27T02:32:20.707Z,19.43
2019-04-27T02:35:02.676Z,13.93
2019-04-27T02:37:31.103Z,13.90
2019-04-27T02:40:00.203Z,17.70
2019-04-27T02:42:30.589Z,19.80
2019-04-27T02:44:59.844Z,16.93
2019-04-27T02:47:29.520Z,11.17
2019-04-27T02:50:00.487Z,12.10
2019-04-27T02:52:32.668Z,11.03
2019-04-27T02:55:01.122Z,16.10
2019-04-27T02:57:30.320Z,13.83
2019-04-27T03:00:00.058Z,12.00
2019-04-27T03:02:30.416Z,13.87
2019-04-27T03:05:00.580Z,13.10
2019-04-27T03:07:30.243Z,10.20
2019-04-27T03:09:59.673Z,14.20
2019-04-27T03:12:30.679Z,14.23
2019-04-27T03:15:12.821Z,10.13
2019-04-27T03:17:42.969Z,15.43
2019-04-27T03:20:24.940Z,12.00
2019-04-27T03:22:54.993Z,19.80
2019-04-27T03:25:25.063Z,14.70
2019-04-27T03:27:55.410Z,12.67
2019-04-27T03:30:24.088Z,16.83
2019-04-27T03:32:56.594Z,11.77
2019-04-27T03:35:23.352Z,13.40
2019-04-27T03:37:51.980Z,13.43
2019-04-27T03:40:20.654Z,14.70
2019-04-27T03:42:50.787Z,13.10
2019-04-27T03:45:19.942Z,12.47
2019-04-27T03:47:50.530Z,11.63
2019-04-27T03:50:20.774Z,12.80
2019-04-27T03:52:53.808Z,14.20
2019-04-27T03:55:32.888Z,10.20
2019-04-27T03:58:21.799Z,18.13
2019-04-27T04:00:52.138Z,15.10
2019-04-27T04:03:20.894Z,14.87
2019-04-27T04:05:49.484Z,11.50
2019-04-27T04:08:19.459Z,12.80
2019-04-27T04:10:49.665Z,13.33
2019-04-27T04:13:36.321Z,12.70
2019-04-27T04:16:07.783Z,10.83
2019-04-27T04:18:54.791Z,10.50
2019-04-27T04:21:23.235Z,10.20
2019-04-27T04:23:51.665Z,11.63
2019-04-27T04:26:20.147Z,11.50
2019-04-27T04:28:50.000Z,12.37
2019-04-27T04:31:20.918Z,12.40
2019-04-27T04:33:49.314Z,12.40
2019-04-27T04:36:19.939Z,22.37
2019-04-27T04:38:50.180Z,17.73
2019-04-27T04:41:20.078Z,11.47
2019-04-27T04:43:52.996Z,10.73
2019-04-27T04:46:31.774Z,13.63
2019-04-27T04:49:00.660Z,11.27
2019-04-27T04:51:30.335Z,12.57
2019-04-27T04:53:59.768Z,9.97
2019-04-27T04:56:29.172Z,12.90
2019-04-27T04:58:59.927Z,10.30
2019-04-27T05:01:29.904Z,14.20
2019-04-27T05:03:58.995Z,11.10
2019-04-27T05:06:29.228Z,14.50
2019-04-27T05:08:59.360Z,10.57
2019-04-27T05:11:29.614Z,15.00
2019-04-27T05:14:01.258Z,10.23
2019-04-27T05:16:28.703Z,8.83
2019-04-27T05:18:57.248Z,8.23
2019-04-27T05:21:27.299Z,17.97
2019-04-27T05:23:55.734Z,8.80
2019-04-27T05:26:24.155Z,7.93
2019-04-27T05:28:52.589Z,8.47
2019-04-27T05:31:21.012Z,8.97
2019-04-27T05:33:49.462Z,7.40
2019-04-27T05:36:19.286Z,6.37
2019-04-27T05:38:49.705Z,6.73
2019-04-27T05:41:18.782Z,7.57
2019-04-27T05:43:49.158Z,6.80
2019-04-27T05:46:39.486Z,6.03
2019-04-27T05:49:09.642Z,5.47
2019-04-27T05:51:40.121Z,5.10
2019-04-27T05:54:09.094Z,5.10
2019-04-27T05:56:38.981Z,5.93
2019-04-27T05:59:09.218Z,5.37
2019-04-27T06:01:38.967Z,4.90
2019-04-27T06:04:09.002Z,5.73
2019-04-27T06:06:39.669Z,6.83
2019-04-27T06:09:09.543Z,7.70
2019-04-27T06:11:39.823Z,5.33
2019-04-27T06:14:09.683Z,4.80
2019-04-27T06:16:39.351Z,5.53
2019-04-27T06:19:09.671Z,11.90
2019-04-27T06:21:39.907Z,5.80
2019-04-27T06:24:08.749Z,7.40
2019-04-27T06:26:37.348Z,7.50
2019-04-27T06:29:05.816Z,5.97
2019-04-27T06:31:34.269Z,5.23
2019-04-27T06:34:02.702Z,3.90
2019-04-27T06:36:31.131Z,4.33
2019-04-27T06:38:59.569Z,7.50
2019-04-27T06:41:29.454Z,4.30
2019-04-27T06:43:59.178Z,7.13
2019-04-27T06:46:28.809Z,3.60
2019-04-27T06:48:59.155Z,3.67
2019-04-27T06:51:28.734Z,4.33
2019-04-27T06:53:59.247Z,4.10
2019-04-27T06:56:28.749Z,4.83
2019-04-27T06:58:57.334Z,2.60
2019-04-27T07:01:25.833Z,7.57
2019-04-27T07:03:54.283Z,3.73
2019-04-27T07:06:22.713Z,4.30
2019-04-27T07:08:51.140Z,3.63
2019-04-27T07:11:19.778Z,4.77
2019-04-27T07:13:49.786Z,5.53
2019-04-27T07:16:19.621Z,2.60
2019-04-27T07:18:48.216Z,4.40
2019-04-27T07:21:20.091Z,2.90
2019-04-27T07:23:59.527Z,2.83
2019-04-27T07:26:30.299Z,3.17
2019-04-27T07:28:59.742Z,4.87
2019-04-27T07:31:29.481Z,4.87
2019-04-27T07:33:59.520Z,2.83
2019-04-27T07:36:28.998Z,2.40
2019-04-27T07:38:59.660Z,3.30
2019-04-27T07:41:29.202Z,2.53
2019-04-27T07:44:05.131Z,2.10
2019-04-27T07:46:33.588Z,3.60
2019-04-27T07:49:02.046Z,7.43
2019-04-27T07:51:34.123Z,6.03
2019-04-27T07:54:00.622Z,1.57
2019-04-27T07:56:29.207Z,2.40
2019-04-27T07:58:59.417Z,3.97
2019-04-27T08:01:29.406Z,2.70
2019-04-27T08:03:59.088Z,1.90
2019-04-27T08:06:29.015Z,1.50
2019-04-27T08:08:59.194Z,1.87
2019-04-27T08:11:29.204Z,7.13
2019-04-27T08:13:58.850Z,4.00
2019-04-27T08:16:29.101Z,1.67
2019-04-27T08:18:59.807Z,3.10
2019-04-27T08:21:28.902Z,1.40
2019-04-27T08:23:58.674Z,2.00
2019-04-27T08:26:28.843Z,2.07
2019-04-27T08:29:04.924Z,6.60
2019-04-27T08:31:38.666Z,6.60
2019-04-27T08:34:08.833Z,2.03
2019-04-27T08:36:38.864Z,3.27
2019-04-27T08:39:08.892Z,3.97
2019-04-27T08:41:37.527Z,1.30
2019-04-27T08:44:05.947Z,2.17
2019-04-27T08:46:34.391Z,3.33
2019-04-27T08:49:02.828Z,2.83
2019-04-27T08:51:31.264Z,2.23
2019-04-27T08:53:59.757Z,3.20
2019-04-27T08:56:28.201Z,5.73
2019-04-27T08:58:56.627Z,1.73
2019-04-27T09:01:25.059Z,2.90
2019-04-27T09:03:53.485Z,1.83
2019-04-27T09:06:21.910Z,4.13
2019-04-27T09:08:54.405Z,7.50
2019-04-27T09:11:30.312Z,2.33
2019-04-27T09:14:00.448Z,2.87
2019-04-27T09:16:30.501Z,2.33
2019-04-27T09:19:00.582Z,2.23
2019-04-27T09:21:30.719Z,3.77
2019-04-27T09:23:59.358Z,1.67
2019-04-27T09:26:28.747Z,2.20
2019-04-27T09:28:57.381Z,5.53
2019-04-27T09:31:25.798Z,2.43
2019-04-27T09:33:56.959Z,3.40
2019-04-27T09:36:26.079Z,3.67
2019-04-27T09:38:56.416Z,2.77
2019-04-27T09:41:26.176Z,3.43
2019-04-27T09:43:55.866Z,2.47
2019-04-27T09:46:25.999Z,4.17
2019-04-27T09:48:56.463Z,2.60
2019-04-27T09:51:25.632Z,4.83
2019-04-27T09:53:54.207Z,5.10
2019-04-27T09:56:22.630Z,2.77
2019-04-27T09:58:51.061Z,4.43
2019-04-27T10:01:19.491Z,3.40
2019-04-27T10:03:48.260Z,3.67
2019-04-27T10:06:16.691Z,3.03
2019-04-27T10:08:45.153Z,1.40
2019-04-27T10:11:13.636Z,4.20
2019-04-27T10:13:42.085Z,2.97
2019-04-27T10:16:10.490Z,3.30
2019-04-27T10:18:38.948Z,3.17
2019-04-27T10:21:07.410Z,3.63
2019-04-27T10:23:36.207Z,4.97
2019-04-27T10:26:05.989Z,7.87
2019-04-27T10:28:35.433Z,11.90
2019-04-27T10:31:04.635Z,5.20
2019-04-27T10:33:33.076Z,2.90
2019-04-27T10:36:01.496Z,5.60
2019-04-27T10:38:29.976Z,3.30
2019-04-27T10:40:58.439Z,5.00
2019-04-27T10:43:26.888Z,1.57
2019-04-27T10:45:56.462Z,2.93
2019-04-27T10:48:26.528Z,3.30
2019-04-27T10:50:55.185Z,1.20
2019-04-27T10:53:23.628Z,1.63
2019-04-27T10:55:52.047Z,3.00
2019-04-27T10:58:20.483Z,1.90
2019-04-27T11:00:53.274Z,3.10
2019-04-27T11:03:23.372Z,3.13
2019-04-27T11:05:56.965Z,5.20
2019-04-27T11:08:25.517Z,2.07
2019-04-27T11:10:54.005Z,2.27
2019-04-27T11:13:22.431Z,4.07
2019-04-27T11:15:50.888Z,4.40
2019-04-27T11:18:19.290Z,2.20
2019-04-27T11:20:47.740Z,3.93
2019-04-27T11:23:16.490Z,2.47
2019-04-27T11:25:46.664Z,4.90
2019-04-27T11:28:15.684Z,5.20
2019-04-27T11:30:44.320Z,3.50
2019-04-27T11:33:12.743Z,1.63
2019-04-27T11:35:48.563Z,3.17
2019-04-27T11:38:16.983Z,1.30
2019-04-27T11:40:46.654Z,2.43
2019-04-27T11:43:16.090Z,2.50
2019-04-27T11:45:45.739Z,5.40
2019-04-27T11:48:16.139Z,10.13
2019-04-27T11:50:45.896Z,2.37
2019-04-27T11:53:22.354Z,2.40
2019-04-27T11:55:45.345Z,3.23
2019-04-27T11:58:13.761Z,3.27
2019-04-27T12:00:42.276Z,6.87
2019-04-27T12:03:10.675Z,4.60
2019-04-27T12:05:39.098Z,3.00
2019-04-27T12:08:07.532Z,5.80
2019-04-27T12:10:36.379Z,4.50
2019-04-27T12:13:05.422Z,2.60
2019-04-27T12:15:36.199Z,3.73
2019-04-27T12:18:08.822Z,2.20
2019-04-27T12:20:35.892Z,6.83
2019-04-27T12:23:06.348Z,5.07
2019-04-27T12:25:37.070Z,2.67
2019-04-27T12:28:21.365Z,4.63
2019-04-27T12:31:00.374Z,2.93
2019-04-27T12:33:28.786Z,3.03
2019-04-27T12:35:57.301Z,2.40
2019-04-27T12:38:26.383Z,4.80
2019-04-27T12:40:56.541Z,3.83
2019-04-27T12:43:25.231Z,11.00
2019-04-27T12:45:53.738Z,7.10
2019-04-27T12:48:22.171Z,5.53
2019-04-27T12:50:50.600Z,1.83
2019-04-27T12:53:20.672Z,4.37
2019-04-27T12:56:02.782Z,5.33
2019-04-27T12:58:32.863Z,12.60
2019-04-27T13:01:08.836Z,3.57
2019-04-27T13:03:37.252Z,8.60
2019-04-27T13:06:05.700Z,2.87
2019-04-27T13:08:35.741Z,2.90
2019-04-27T13:11:05.856Z,3.30
2019-04-27T13:13:34.542Z,2.90
2019-04-27T13:16:02.976Z,1.80
2019-04-27T13:18:31.410Z,2.23
2019-04-27T13:20:59.831Z,1.00
2019-04-27T13:23:28.631Z,1.40
2019-04-27T13:25:57.346Z,1.83
2019-04-27T13:28:25.812Z,3.67
2019-04-27T13:30:55.851Z,3.40
2019-04-27T13:33:26.238Z,6.03
2019-04-27T13:35:54.735Z,2.77
2019-04-27T13:38:23.169Z,1.93
2019-04-27T13:41:10.713Z,1.97
2019-04-27T13:43:39.508Z,1.87
2019-04-27T13:46:26.117Z,4.37
2019-04-27T13:49:12.259Z,5.23
2019-04-27T13:51:42.306Z,2.60
2019-04-27T13:54:18.905Z,1.10
2019-04-27T13:56:40.913Z,5.50
2019-04-27T13:59:10.741Z,1.83
2019-04-27T14:01:39.675Z,2.17
2019-04-27T14:04:08.119Z,1.43
2019-04-27T14:06:36.543Z,1.67
2019-04-27T14:09:06.985Z,3.30
2019-04-27T14:11:39.165Z,2.50
2019-04-27T14:14:07.238Z,2.60
2019-04-27T14:16:35.661Z,3.53
2019-04-27T14:19:04.091Z,1.97
2019-04-27T14:21:32.941Z,1.87
2019-04-27T14:24:01.441Z,14.33
2019-04-27T14:26:29.857Z,3.47
2019-04-27T14:28:58.424Z,2.03
2019-04-27T14:31:26.911Z,1.60
2019-04-27T14:33:55.334Z,2.57
2019-04-27T14:36:23.770Z,3.83
2019-04-27T14:38:52.203Z,1.40
2019-04-27T14:41:20.647Z,1.77
2019-04-27T14:44:04.906Z,3.23
2019-04-27T14:46:19.947Z,2.93
2019-04-27T14:48:48.395Z,3.73
2019-04-27T14:51:18.653Z,4.97
2019-04-27T14:53:48.777Z,6.83
2019-04-27T14:56:18.195Z,7.73
2019-04-27T14:58:46.730Z,3.20
2019-04-27T15:01:15.144Z,1.00
2019-04-27T15:03:43.582Z,3.53
2019-04-27T15:06:13.772Z,3.77
2019-04-27T15:08:42.706Z,2.00
2019-04-27T15:11:17.360Z,2.70
2019-04-27T15:13:45.906Z,3.43
2019-04-27T15:16:12.472Z,2.50
2019-04-27T15:18:43.775Z,3.13
2019-04-27T15:21:12.328Z,5.10
2019-04-27T15:23:41.404Z,7.87
2019-04-27T15:26:10.448Z,4.07
2019-04-27T15:28:40.666Z,2.43
2019-04-27T15:31:26.854Z,8.23
2019-04-27T15:34:00.695Z,2.70
2019-04-27T15:36:46.921Z,5.67
2019-04-27T15:39:33.501Z,1.63
2019-04-27T15:42:08.275Z,4.40
2019-04-27T15:44:36.439Z,4.03
2019-04-27T15:47:08.483Z,13.23
2019-04-27T15:49:34.361Z,11.43
2019-04-27T15:52:04.555Z,7.53
2019-04-27T15:54:32.928Z,10.83
2019-04-27T15:57:01.346Z,9.97
2019-04-27T15:59:30.917Z,14.10
2019-04-27T16:01:59.917Z,2.30
2019-04-27T16:04:28.345Z,4.77
2019-04-27T16:06:58.261Z,5.17
2019-04-27T16:09:28.337Z,3.43
2019-04-27T16:12:06.740Z,5.10
2019-04-27T16:14:28.801Z,4.90
2019-04-27T16:16:58.827Z,11.17
2019-04-27T16:19:28.727Z,7.20
2019-04-27T16:21:59.144Z,5.37
2019-04-27T16:24:29.007Z,6.10
2019-04-27T16:26:59.061Z,4.67
2019-04-27T16:29:31.405Z,6.00
2019-04-27T16:31:58.332Z,9.07
2019-04-27T16:34:28.554Z,5.00
2019-04-27T16:36:57.663Z,18.23
2019-04-27T16:39:26.083Z,7.50
2019-04-27T16:41:54.527Z,6.03
2019-04-27T16:44:22.951Z,10.40
2019-04-27T16:46:51.419Z,4.37
2019-04-27T16:49:19.890Z,5.70
2019-04-27T16:51:49.259Z,4.20
2019-04-27T16:54:21.371Z,9.47
2019-04-27T16:56:53.065Z,7.43
2019-04-27T16:59:39.836Z,2.77
2019-04-27T17:01:50.274Z,6.33
2019-04-27T17:04:19.038Z,3.73
2019-04-27T17:06:49.385Z,7.33
2019-04-27T17:09:18.963Z,3.40
2019-04-27T17:11:50.434Z,4.70
2019-04-27T17:14:21.876Z,4.23
2019-04-27T17:16:51.101Z,3.50
2019-04-27T17:19:30.731Z,6.60
2019-04-27T17:21:59.353Z,2.60
2019-04-27T17:24:43.932Z,1.90
2019-04-27T17:27:11.125Z,3.20
2019-04-27T17:29:40.027Z,5.20
2019-04-27T17:32:10.247Z,7.73
2019-04-27T17:34:39.732Z,8.87
2019-04-27T17:37:08.373Z,8.90
2019-04-27T17:39:38.768Z,5.40
2019-04-27T17:42:08.417Z,4.87
2019-04-27T17:44:39.167Z,6.10
2019-04-27T17:47:08.832Z,4.60
2019-04-27T17:49:38.174Z,7.60
2019-04-27T17:52:08.651Z,3.33
2019-04-27T17:54:40.857Z,3.60
2019-04-27T17:57:10.038Z,1.87
2019-04-27T17:59:37.726Z,6.97
2019-04-27T18:02:06.475Z,3.63
2019-04-27T18:04:37.651Z,3.57
2019-04-27T18:07:05.042Z,3.73
2019-04-27T18:09:37.456Z,3.80
2019-04-27T18:12:07.484Z,4.83
2019-04-27T18:14:39.508Z,6.57
2019-04-27T18:17:08.560Z,4.37
2019-04-27T18:19:35.946Z,7.83
2019-04-27T18:22:05.540Z,4.97
2019-04-27T18:24:35.688Z,5.00
2019-04-27T18:27:20.856Z,12.30
2019-04-27T18:29:49.291Z,5.13
2019-04-27T18:32:27.688Z,7.00
2019-04-27T18:34:55.894Z,3.93
2019-04-27T18:37:25.107Z,2.03
2019-04-27T18:39:54.957Z,4.80
2019-04-27T18:42:29.727Z,4.03
2019-04-27T18:44:53.738Z,7.27
2019-04-27T18:47:22.406Z,6.80
2019-04-27T18:49:54.941Z,5.23
2019-04-27T18:52:47.463Z,6.10
2019-04-27T18:55:16.853Z,7.30
2019-04-27T18:57:45.948Z,15.30
2019-04-27T19:00:16.073Z,7.30
2019-04-27T19:02:44.485Z,4.50
2019-04-27T19:05:13.054Z,2.77
2019-04-27T19:07:41.918Z,2.57
2019-04-27T19:10:10.499Z,2.07
2019-04-27T19:12:39.515Z,5.13
2019-04-27T19:15:08.925Z,2.23
2019-04-27T19:17:38.739Z,3.37
2019-04-27T19:20:08.272Z,3.33
2019-04-27T19:22:38.578Z,3.50
2019-04-27T19:25:09.673Z,3.87
2019-04-27T19:27:42.734Z,2.87
2019-04-27T19:30:31.408Z,2.00
2019-04-27T19:32:59.829Z,2.27
2019-04-27T19:35:28.752Z,3.27
2019-04-27T19:37:58.913Z,2.93
2019-04-27T19:40:29.048Z,5.53
2019-04-27T19:42:58.803Z,1.23
2019-04-27T19:45:29.107Z,4.30
2019-04-27T19:47:57.490Z,1.70
2019-04-27T19:50:25.931Z,2.47
2019-04-27T19:52:54.366Z,2.77
2019-04-27T19:55:22.800Z,5.57
2019-04-27T19:57:52.123Z,3.77
2019-04-27T20:00:24.850Z,4.50
2019-04-27T20:02:53.266Z,10.67
2019-04-27T20:05:21.955Z,4.00
2019-04-27T20:07:50.375Z,2.70
2019-04-27T20:10:20.282Z,3.90
2019-04-27T20:12:48.882Z,6.43
2019-04-27T20:15:17.321Z,2.60
2019-04-27T20:17:45.725Z,5.03
2019-04-27T20:20:14.213Z,2.50
2019-04-27T20:22:42.646Z,4.00
2019-04-27T20:25:11.296Z,3.53
2019-04-27T20:27:48.421Z,2.40
2019-04-27T20:30:11.892Z,6.17
2019-04-27T20:32:40.561Z,3.07
2019-04-27T20:35:09.144Z,4.87
2019-04-27T20:37:37.610Z,3.47
2019-04-27T20:40:07.647Z,5.00
2019-04-27T20:42:36.165Z,5.70
2019-04-27T20:45:05.732Z,4.60
2019-04-27T20:47:34.425Z,3.83
2019-04-27T20:50:03.027Z,12.27
2019-04-27T20:52:35.797Z,2.67
2019-04-27T20:55:06.467Z,3.90
2019-04-27T20:57:34.902Z,6.00
2019-04-27T21:00:04.619Z,2.80
2019-04-27T21:02:37.477Z,3.13
2019-04-27T21:05:26.866Z,5.63
2019-04-27T21:08:01.344Z,8.20
2019-04-27T21:10:30.800Z,5.20
2019-04-27T21:13:00.974Z,7.67
2019-04-27T21:15:32.485Z,7.80
2019-04-27T21:18:01.410Z,5.07
2019-04-27T21:20:30.965Z,4.13
2019-04-27T21:22:59.555Z,3.23
2019-04-27T21:25:27.971Z,6.17
2019-04-27T21:28:14.606Z,7.07
2019-04-27T21:30:31.383Z,4.43
2019-04-27T21:33:01.095Z,5.57
2019-04-27T21:35:29.718Z,10.00
2019-04-27T21:37:58.162Z,3.17
2019-04-27T21:40:26.603Z,3.67
2019-04-27T21:42:55.011Z,16.33
2019-04-27T21:45:23.504Z,8.53
2019-04-27T21:47:52.047Z,10.73
2019-04-27T21:50:22.993Z,4.10
2019-04-27T21:52:58.261Z,3.47
2019-04-27T21:55:28.339Z,10.23
2019-04-27T21:57:56.758Z,6.03
2019-04-27T22:00:42.808Z,11.93
2019-04-27T22:03:12.242Z,9.17
2019-04-27T22:05:41.690Z,11.30
2019-04-27T22:08:11.770Z,8.07
2019-04-27T22:10:40.595Z,13.80
2019-04-27T22:13:09.016Z,9.40
2019-04-27T22:15:37.457Z,15.17
2019-04-27T22:18:06.219Z,10.07
2019-04-27T22:20:35.297Z,11.13
2019-04-27T22:23:13.959Z,4.53
2019-04-27T22:25:42.474Z,15.43
2019-04-27T22:28:11.762Z,4.30
2019-04-27T22:30:40.775Z,9.30
2019-04-27T22:33:11.174Z,12.50
2019-04-27T22:35:39.336Z,10.17
2019-04-27T22:38:07.754Z,12.07
2019-04-27T22:40:43.993Z,10.47
2019-04-27T22:43:14.078Z,10.20
2019-04-27T22:45:44.142Z,9.47
2019-04-27T22:48:12.553Z,11.70
2019-04-27T22:50:41.383Z,12.30
2019-04-27T22:53:09.913Z,15.10
2019-04-27T22:55:41.207Z,12.07
2019-04-27T22:58:14.444Z,9.40
2019-04-27T23:00:47.399Z,7.50
2019-04-27T23:03:23.383Z,5.03
2019-04-27T23:05:51.885Z,6.30
2019-04-27T23:08:20.782Z,6.80
2019-04-27T23:10:50.454Z,8.87
2019-04-27T23:13:18.862Z,9.33
2019-04-27T23:15:48.926Z,5.87
2019-04-27T23:18:17.358Z,6.70
2019-04-27T23:20:46.136Z,7.27
2019-04-27T23:23:14.546Z,9.17
2019-04-27T23:25:43.239Z,9.67
2019-04-27T23:28:11.655Z,12.00
2019-04-27T23:30:41.726Z,11.43
2019-04-27T23:33:11.151Z,7.83
2019-04-27T23:35:41.057Z,9.23
2019-04-27T23:38:17.286Z,18.50
2019-04-27T23:40:41.767Z,7.97
2019-04-27T23:43:11.483Z,5.30
2019-04-27T23:45:41.788Z,6.80
2019-04-27T23:48:12.231Z,7.40
2019-04-27T23:50:42.646Z,9.60
2019-04-27T23:53:15.681Z,8.70
2019-04-27T23:55:44.121Z,11.30
2019-04-27T23:58:12.530Z,9.80
